sensor_id;sensor_type;location;lat;lon;timestamp;temperature;humidity
16966;DHT22;8599;47.852;12.070;2023-05-29T00:00:26;14.50;99.90
16966;DHT22;8599;47.852;12.070;2023-05-29T00:02:52;14.20;99.90
16966;DHT22;8599;47.852;12.070;2023-05-29T00:05:19;14.30;99.90
16966;DHT22;8599;47.852;12.070;2023-05-29T00:07:47;14.20;99.90
16966;DHT22;8599;47.852;12.070;2023-05-29T00:10:16;14.20;99.90
16966;DHT22;8599;47.852;12.070;2023-05-29T00:12:43;14.20;99.90
16966;DHT22;8599;47.852;12.070;2023-05-29T00:15:10;14.20;99.90
16966;DHT22;8599;47.852;12.070;2023-05-29T00:17:38;14.20;99.90
16966;DHT22;8599;47.852;12.070;2023-05-29T00:20:06;14.30;99.90
16966;DHT22;8599;47.852;12.070;2023-05-29T00:22:35;14.30;99.90
16966;DHT22;8599;47.852;12.070;2023-05-29T00:25:05;14.30;99.90
16966;DHT22;8599;47.852;12.070;2023-05-29T00:27:33;14.30;99.90
16966;DHT22;8599;47.852;12.070;2023-05-29T00:30:00;14.30;99.90
16966;DHT22;8599;47.852;12.070;2023-05-29T00:32:27;14.40;99.90
16966;DHT22;8599;47.852;12.070;2023-05-29T00:34:54;14.40;99.90
16966;DHT22;8599;47.852;12.070;2023-05-29T00:37:21;14.40;99.90
16966;DHT22;8599;47.852;12.070;2023-05-29T00:39:48;14.30;99.90
16966;DHT22;8599;47.852;12.070;2023-05-29T00:42:16;14.30;99.90
16966;DHT22;8599;47.852;12.070;2023-05-29T00:44:43;14.30;99.90
16966;DHT22;8599;47.852;12.070;2023-05-29T00:47:10;14.30;99.90
16966;DHT22;8599;47.852;12.070;2023-05-29T00:49:37;14.30;99.90
16966;DHT22;8599;47.852;12.070;2023-05-29T00:52:05;14.20;99.90
16966;DHT22;8599;47.852;12.070;2023-05-29T00:54:33;14.00;99.90
16966;DHT22;8599;47.852;12.070;2023-05-29T00:57:02;14.00;99.90
16966;DHT22;8599;47.852;12.070;2023-05-29T00:59:33;14.00;99.90
16966;DHT22;8599;47.852;12.070;2023-05-29T01:02:01;13.90;99.90
16966;DHT22;8599;47.852;12.070;2023-05-29T01:04:29;13.80;99.90
16966;DHT22;8599;47.852;12.070;2023-05-29T01:06:59;13.50;99.90
16966;DHT22;8599;47.852;12.070;2023-05-29T01:09:27;13.30;99.90
16966;DHT22;8599;47.852;12.070;2023-05-29T01:11:59;13.30;99.90
16966;DHT22;8599;47.852;12.070;2023-05-29T01:14:36;13.30;99.90
16966;DHT22;8599;47.852;12.070;2023-05-29T01:17:12;13.40;99.90
16966;DHT22;8599;47.852;12.070;2023-05-29T01:19:58;13.40;99.90
16966;DHT22;8599;47.852;12.070;2023-05-29T01:22:34;13.50;99.90
16966;DHT22;8599;47.852;12.070;2023-05-29T01:25:11;13.60;99.90
16966;DHT22;8599;47.852;12.070;2023-05-29T01:27:41;13.40;99.90
16966;DHT22;8599;47.852;12.070;2023-05-29T01:30:11;13.20;99.90
16966;DHT22;8599;47.852;12.070;2023-05-29T01:32:40;13.00;99.90
16966;DHT22;8599;47.852;12.070;2023-05-29T01:35:08;13.10;99.90
16966;DHT22;8599;47.852;12.070;2023-05-29T01:37:35;13.10;99.90
16966;DHT22;8599;47.852;12.070;2023-05-29T01:40:02;13.20;99.90
16966;DHT22;8599;47.852;12.070;2023-05-29T01:42:29;13.20;99.90
16966;DHT22;8599;47.852;12.070;2023-05-29T01:44:58;13.20;99.90
16966;DHT22;8599;47.852;12.070;2023-05-29T01:47:26;13.30;99.90
16966;DHT22;8599;47.852;12.070;2023-05-29T01:49:53;13.00;99.90
16966;DHT22;8599;47.852;12.070;2023-05-29T01:52:21;12.90;99.90
16966;DHT22;8599;47.852;12.070;2023-05-29T01:54:48;12.80;99.90
16966;DHT22;8599;47.852;12.070;2023-05-29T01:57:15;12.60;99.90
16966;DHT22;8599;47.852;12.070;2023-05-29T01:59:42;12.50;99.90
16966;DHT22;8599;47.852;12.070;2023-05-29T02:02:10;12.70;99.90
16966;DHT22;8599;47.852;12.070;2023-05-29T02:04:38;12.60;99.90
16966;DHT22;8599;47.852;12.070;2023-05-29T02:07:05;12.50;99.90
16966;DHT22;8599;47.852;12.070;2023-05-29T02:09:32;12.40;99.90
16966;DHT22;8599;47.852;12.070;2023-05-29T02:11:59;12.40;99.90
16966;DHT22;8599;47.852;12.070;2023-05-29T02:14:26;12.30;99.90
16966;DHT22;8599;47.852;12.070;2023-05-29T02:16:53;12.50;99.90
16966;DHT22;8599;47.852;12.070;2023-05-29T02:19:21;12.50;99.90
16966;DHT22;8599;47.852;12.070;2023-05-29T02:21:51;12.50;99.90
16966;DHT22;8599;47.852;12.070;2023-05-29T02:24:17;12.70;99.90
16966;DHT22;8599;47.852;12.070;2023-05-29T02:26:47;12.70;99.90
16966;DHT22;8599;47.852;12.070;2023-05-29T02:29:14;12.70;99.90
16966;DHT22;8599;47.852;12.070;2023-05-29T02:31:41;12.70;99.90
16966;DHT22;8599;47.852;12.070;2023-05-29T02:34:08;12.70;99.90
16966;DHT22;8599;47.852;12.070;2023-05-29T02:36:36;12.50;99.90
16966;DHT22;8599;47.852;12.070;2023-05-29T02:39:04;12.50;99.90
16966;DHT22;8599;47.852;12.070;2023-05-29T02:41:30;12.50;99.90
16966;DHT22;8599;47.852;12.070;2023-05-29T02:43:57;12.40;99.90
16966;DHT22;8599;47.852;12.070;2023-05-29T02:46:24;12.40;99.90
16966;DHT22;8599;47.852;12.070;2023-05-29T02:48:51;12.30;99.90
16966;DHT22;8599;47.852;12.070;2023-05-29T02:51:17;12.30;99.90
16966;DHT22;8599;47.852;12.070;2023-05-29T02:53:45;12.40;99.90
16966;DHT22;8599;47.852;12.070;2023-05-29T02:56:14;12.50;99.90
16966;DHT22;8599;47.852;12.070;2023-05-29T02:58:42;12.60;99.90
16966;DHT22;8599;47.852;12.070;2023-05-29T03:01:09;12.60;99.90
16966;DHT22;8599;47.852;12.070;2023-05-29T03:03:36;12.50;99.90
16966;DHT22;8599;47.852;12.070;2023-05-29T03:06:03;12.50;99.90
16966;DHT22;8599;47.852;12.070;2023-05-29T03:08:30;12.40;99.90
16966;DHT22;8599;47.852;12.070;2023-05-29T03:10:58;12.40;99.90
16966;DHT22;8599;47.852;12.070;2023-05-29T03:13:25;12.40;99.90
16966;DHT22;8599;47.852;12.070;2023-05-29T03:15:51;12.30;99.90
16966;DHT22;8599;47.852;12.070;2023-05-29T03:18:22;12.30;99.90
16966;DHT22;8599;47.852;12.070;2023-05-29T03:20:49;12.40;99.90
16966;DHT22;8599;47.852;12.070;2023-05-29T03:23:15;12.50;99.90
16966;DHT22;8599;47.852;12.070;2023-05-29T03:25:42;12.50;99.90
16966;DHT22;8599;47.852;12.070;2023-05-29T03:28:10;12.50;99.90
16966;DHT22;8599;47.852;12.070;2023-05-29T03:30:37;12.50;99.90
16966;DHT22;8599;47.852;12.070;2023-05-29T03:33:04;12.50;99.90
16966;DHT22;8599;47.852;12.070;2023-05-29T03:35:31;12.40;99.90
16966;DHT22;8599;47.852;12.070;2023-05-29T03:37:58;12.30;99.90
16966;DHT22;8599;47.852;12.070;2023-05-29T03:40:24;12.20;99.90
16966;DHT22;8599;47.852;12.070;2023-05-29T03:42:51;12.20;99.90
16966;DHT22;8599;47.852;12.070;2023-05-29T03:45:19;12.20;99.90
16966;DHT22;8599;47.852;12.070;2023-05-29T03:47:46;12.20;99.90
16966;DHT22;8599;47.852;12.070;2023-05-29T03:50:13;12.10;99.90
16966;DHT22;8599;47.852;12.070;2023-05-29T03:52:40;12.10;99.90
16966;DHT22;8599;47.852;12.070;2023-05-29T03:55:09;12.20;99.90
16966;DHT22;8599;47.852;12.070;2023-05-29T03:57:38;12.20;99.90
16966;DHT22;8599;47.852;12.070;2023-05-29T04:00:07;12.20;99.90
16966;DHT22;8599;47.852;12.070;2023-05-29T04:02:37;12.30;99.90
16966;DHT22;8599;47.852;12.070;2023-05-29T04:05:04;12.10;99.90
16966;DHT22;8599;47.852;12.070;2023-05-29T04:07:31;12.00;99.90
16966;DHT22;8599;47.852;12.070;2023-05-29T04:09:58;12.10;99.90
16966;DHT22;8599;47.852;12.070;2023-05-29T04:12:25;12.20;99.90
16966;DHT22;8599;47.852;12.070;2023-05-29T04:14:52;12.30;99.90
16966;DHT22;8599;47.852;12.070;2023-05-29T04:17:19;12.30;99.90
16966;DHT22;8599;47.852;12.070;2023-05-29T04:19:47;12.50;99.90
16966;DHT22;8599;47.852;12.070;2023-05-29T04:22:14;12.60;99.90
16966;DHT22;8599;47.852;12.070;2023-05-29T04:24:41;12.70;99.90
16966;DHT22;8599;47.852;12.070;2023-05-29T04:27:08;12.70;99.90
16966;DHT22;8599;47.852;12.070;2023-05-29T04:29:38;12.80;99.90
16966;DHT22;8599;47.852;12.070;2023-05-29T04:32:06;12.90;99.90
16966;DHT22;8599;47.852;12.070;2023-05-29T04:34:33;12.90;99.90
16966;DHT22;8599;47.852;12.070;2023-05-29T04:37:02;13.00;99.90
16966;DHT22;8599;47.852;12.070;2023-05-29T04:39:29;13.20;99.90
16966;DHT22;8599;47.852;12.070;2023-05-29T04:41:56;13.30;99.90
16966;DHT22;8599;47.852;12.070;2023-05-29T04:44:24;13.50;99.90
16966;DHT22;8599;47.852;12.070;2023-05-29T04:46:52;13.60;99.90
16966;DHT22;8599;47.852;12.070;2023-05-29T04:49:19;13.60;99.90
16966;DHT22;8599;47.852;12.070;2023-05-29T04:51:46;13.70;99.90
16966;DHT22;8599;47.852;12.070;2023-05-29T04:54:14;13.70;99.90
16966;DHT22;8599;47.852;12.070;2023-05-29T04:56:42;13.40;99.90
16966;DHT22;8599;47.852;12.070;2023-05-29T04:59:08;13.60;99.90
16966;DHT22;8599;47.852;12.070;2023-05-29T05:01:35;13.40;99.90
16966;DHT22;8599;47.852;12.070;2023-05-29T05:04:02;13.30;99.90
16966;DHT22;8599;47.852;12.070;2023-05-29T05:06:29;13.30;99.90
16966;DHT22;8599;47.852;12.070;2023-05-29T05:08:56;13.40;99.90
16966;DHT22;8599;47.852;12.070;2023-05-29T05:11:24;13.50;99.90
16966;DHT22;8599;47.852;12.070;2023-05-29T05:13:51;13.60;99.90
16966;DHT22;8599;47.852;12.070;2023-05-29T05:16:18;13.80;99.90
16966;DHT22;8599;47.852;12.070;2023-05-29T05:18:45;13.90;99.90
16966;DHT22;8599;47.852;12.070;2023-05-29T05:21:11;13.90;99.90
16966;DHT22;8599;47.852;12.070;2023-05-29T05:23:38;14.10;99.90
16966;DHT22;8599;47.852;12.070;2023-05-29T05:26:05;14.20;99.90
16966;DHT22;8599;47.852;12.070;2023-05-29T05:28:33;14.40;99.90
16966;DHT22;8599;47.852;12.070;2023-05-29T05:31:01;14.50;99.90
16966;DHT22;8599;47.852;12.070;2023-05-29T05:33:28;14.30;99.90
16966;DHT22;8599;47.852;12.070;2023-05-29T05:35:55;14.20;99.90
16966;DHT22;8599;47.852;12.070;2023-05-29T05:38:21;14.40;99.90
16966;DHT22;8599;47.852;12.070;2023-05-29T05:40:48;14.60;99.90
16966;DHT22;8599;47.852;12.070;2023-05-29T05:43:15;14.70;99.90
16966;DHT22;8599;47.852;12.070;2023-05-29T05:45:43;14.60;99.90
16966;DHT22;8599;47.852;12.070;2023-05-29T05:48:10;14.80;99.90
16966;DHT22;8599;47.852;12.070;2023-05-29T05:50:37;14.80;99.90
16966;DHT22;8599;47.852;12.070;2023-05-29T05:53:03;14.80;99.90
16966;DHT22;8599;47.852;12.070;2023-05-29T05:55:31;15.00;99.90
16966;DHT22;8599;47.852;12.070;2023-05-29T05:57:57;15.10;99.90
16966;DHT22;8599;47.852;12.070;2023-05-29T06:00:24;15.10;99.90
16966;DHT22;8599;47.852;12.070;2023-05-29T06:02:52;15.20;99.90
16966;DHT22;8599;47.852;12.070;2023-05-29T06:05:19;15.30;99.90
16966;DHT22;8599;47.852;12.070;2023-05-29T06:07:46;15.20;99.90
16966;DHT22;8599;47.852;12.070;2023-05-29T06:10:13;15.20;99.90
16966;DHT22;8599;47.852;12.070;2023-05-29T06:12:40;15.20;99.90
16966;DHT22;8599;47.852;12.070;2023-05-29T06:15:07;15.40;99.90
16966;DHT22;8599;47.852;12.070;2023-05-29T06:17:34;15.60;99.90
16966;DHT22;8599;47.852;12.070;2023-05-29T06:20:03;15.60;99.90
16966;DHT22;8599;47.852;12.070;2023-05-29T06:22:34;15.90;99.90
16966;DHT22;8599;47.852;12.070;2023-05-29T06:25:01;16.00;99.90
16966;DHT22;8599;47.852;12.070;2023-05-29T06:27:28;16.10;99.90
16966;DHT22;8599;47.852;12.070;2023-05-29T06:29:55;16.20;99.90
16966;DHT22;8599;47.852;12.070;2023-05-29T06:32:22;16.20;99.90
16966;DHT22;8599;47.852;12.070;2023-05-29T06:34:49;16.20;99.90
16966;DHT22;8599;47.852;12.070;2023-05-29T06:37:17;16.10;99.90
16966;DHT22;8599;47.852;12.070;2023-05-29T06:39:44;16.10;99.90
16966;DHT22;8599;47.852;12.070;2023-05-29T06:42:11;16.00;99.90
16966;DHT22;8599;47.852;12.070;2023-05-29T06:44:38;16.00;99.90
16966;DHT22;8599;47.852;12.070;2023-05-29T06:47:05;16.10;99.90
16966;DHT22;8599;47.852;12.070;2023-05-29T06:49:32;16.20;99.90
16966;DHT22;8599;47.852;12.070;2023-05-29T06:51:59;16.30;99.90
16966;DHT22;8599;47.852;12.070;2023-05-29T06:54:27;16.30;99.90
16966;DHT22;8599;47.852;12.070;2023-05-29T06:56:54;16.40;99.90
16966;DHT22;8599;47.852;12.070;2023-05-29T06:59:22;16.50;99.90
16966;DHT22;8599;47.852;12.070;2023-05-29T07:01:49;16.50;99.90
16966;DHT22;8599;47.852;12.070;2023-05-29T07:04:15;16.60;99.90
16966;DHT22;8599;47.852;12.070;2023-05-29T07:06:42;16.70;99.90
16966;DHT22;8599;47.852;12.070;2023-05-29T07:09:09;16.80;99.90
16966;DHT22;8599;47.852;12.070;2023-05-29T07:11:38;16.80;99.90
16966;DHT22;8599;47.852;12.070;2023-05-29T07:14:05;16.90;99.90
16966;DHT22;8599;47.852;12.070;2023-05-29T07:16:32;16.90;99.90
16966;DHT22;8599;47.852;12.070;2023-05-29T07:18:59;16.90;99.90
16966;DHT22;8599;47.852;12.070;2023-05-29T07:21:25;17.00;99.90
16966;DHT22;8599;47.852;12.070;2023-05-29T07:23:53;17.00;99.90
16966;DHT22;8599;47.852;12.070;2023-05-29T07:26:19;17.00;99.90
16966;DHT22;8599;47.852;12.070;2023-05-29T07:28:49;17.00;99.90
16966;DHT22;8599;47.852;12.070;2023-05-29T07:31:16;17.00;99.90
16966;DHT22;8599;47.852;12.070;2023-05-29T07:33:43;17.00;99.90
16966;DHT22;8599;47.852;12.070;2023-05-29T07:36:10;17.00;99.90
16966;DHT22;8599;47.852;12.070;2023-05-29T07:38:38;17.00;99.90
16966;DHT22;8599;47.852;12.070;2023-05-29T07:41:04;17.10;99.90
16966;DHT22;8599;47.852;12.070;2023-05-29T07:43:31;17.20;99.90
16966;DHT22;8599;47.852;12.070;2023-05-29T07:45:59;17.20;99.90
16966;DHT22;8599;47.852;12.070;2023-05-29T07:48:26;17.20;99.90
16966;DHT22;8599;47.852;12.070;2023-05-29T07:50:53;17.20;99.90
16966;DHT22;8599;47.852;12.070;2023-05-29T07:53:20;17.20;99.90
16966;DHT22;8599;47.852;12.070;2023-05-29T07:55:47;17.30;99.90
16966;DHT22;8599;47.852;12.070;2023-05-29T07:58:13;17.30;99.90
16966;DHT22;8599;47.852;12.070;2023-05-29T08:00:43;17.50;99.90
16966;DHT22;8599;47.852;12.070;2023-05-29T08:03:11;17.50;99.90
16966;DHT22;8599;47.852;12.070;2023-05-29T08:05:38;17.50;99.90
16966;DHT22;8599;47.852;12.070;2023-05-29T08:08:05;17.50;99.90
16966;DHT22;8599;47.852;12.070;2023-05-29T08:10:32;17.60;99.90
16966;DHT22;8599;47.852;12.070;2023-05-29T08:12:58;17.60;99.90
16966;DHT22;8599;47.852;12.070;2023-05-29T08:15:25;17.60;99.90
16966;DHT22;8599;47.852;12.070;2023-05-29T08:17:52;17.60;99.90
16966;DHT22;8599;47.852;12.070;2023-05-29T08:20:20;17.70;99.90
16966;DHT22;8599;47.852;12.070;2023-05-29T08:22:47;17.70;99.90
16966;DHT22;8599;47.852;12.070;2023-05-29T08:25:14;17.80;99.90
16966;DHT22;8599;47.852;12.070;2023-05-29T08:27:40;17.90;99.90
16966;DHT22;8599;47.852;12.070;2023-05-29T08:30:08;17.90;99.90
16966;DHT22;8599;47.852;12.070;2023-05-29T08:32:35;18.00;99.90
16966;DHT22;8599;47.852;12.070;2023-05-29T08:35:02;18.10;99.90
16966;DHT22;8599;47.852;12.070;2023-05-29T08:37:31;18.20;99.90
16966;DHT22;8599;47.852;12.070;2023-05-29T08:39:58;18.20;99.90
16966;DHT22;8599;47.852;12.070;2023-05-29T08:42:29;18.20;99.90
16966;DHT22;8599;47.852;12.070;2023-05-29T08:45:02;18.20;99.90
16966;DHT22;8599;47.852;12.070;2023-05-29T08:47:32;18.30;99.90
16966;DHT22;8599;47.852;12.070;2023-05-29T08:50:00;18.30;99.90
16966;DHT22;8599;47.852;12.070;2023-05-29T08:52:32;18.50;99.90
16966;DHT22;8599;47.852;12.070;2023-05-29T08:55:01;18.60;99.90
16966;DHT22;8599;47.852;12.070;2023-05-29T08:57:28;18.60;99.90
16966;DHT22;8599;47.852;12.070;2023-05-29T08:59:56;18.60;99.90
16966;DHT22;8599;47.852;12.070;2023-05-29T09:02:23;18.70;99.90
16966;DHT22;8599;47.852;12.070;2023-05-29T09:04:50;18.70;99.90
16966;DHT22;8599;47.852;12.070;2023-05-29T09:07:19;18.80;99.90
16966;DHT22;8599;47.852;12.070;2023-05-29T09:09:48;18.90;99.90
16966;DHT22;8599;47.852;12.070;2023-05-29T09:12:15;19.10;99.90
16966;DHT22;8599;47.852;12.070;2023-05-29T09:14:43;19.20;99.90
16966;DHT22;8599;47.852;12.070;2023-05-29T09:17:12;19.20;99.90
16966;DHT22;8599;47.852;12.070;2023-05-29T09:19:39;19.30;99.90
16966;DHT22;8599;47.852;12.070;2023-05-29T09:22:08;19.30;99.90
16966;DHT22;8599;47.852;12.070;2023-05-29T09:24:36;19.50;99.90
16966;DHT22;8599;47.852;12.070;2023-05-29T09:27:05;19.50;99.90
16966;DHT22;8599;47.852;12.070;2023-05-29T09:29:37;19.60;99.90
16966;DHT22;8599;47.852;12.070;2023-05-29T09:32:06;19.60;99.90
16966;DHT22;8599;47.852;12.070;2023-05-29T09:34:34;19.60;99.90
16966;DHT22;8599;47.852;12.070;2023-05-29T09:37:01;19.70;99.90
16966;DHT22;8599;47.852;12.070;2023-05-29T09:39:34;19.80;99.90
16966;DHT22;8599;47.852;12.070;2023-05-29T09:42:01;20.00;99.90
16966;DHT22;8599;47.852;12.070;2023-05-29T09:44:30;19.90;99.90
16966;DHT22;8599;47.852;12.070;2023-05-29T09:46:58;20.00;99.90
16966;DHT22;8599;47.852;12.070;2023-05-29T09:49:26;20.20;99.90
16966;DHT22;8599;47.852;12.070;2023-05-29T09:51:53;20.20;99.90
16966;DHT22;8599;47.852;12.070;2023-05-29T09:54:20;20.40;99.90
16966;DHT22;8599;47.852;12.070;2023-05-29T09:56:47;20.40;99.90
16966;DHT22;8599;47.852;12.070;2023-05-29T09:59:15;20.50;99.90
16966;DHT22;8599;47.852;12.070;2023-05-29T10:01:45;20.60;99.90
16966;DHT22;8599;47.852;12.070;2023-05-29T10:04:12;20.70;99.90
16966;DHT22;8599;47.852;12.070;2023-05-29T10:06:44;20.80;99.90
16966;DHT22;8599;47.852;12.070;2023-05-29T10:09:12;20.90;99.90
16966;DHT22;8599;47.852;12.070;2023-05-29T10:11:43;20.80;99.90
16966;DHT22;8599;47.852;12.070;2023-05-29T10:14:17;20.90;99.90
16966;DHT22;8599;47.852;12.070;2023-05-29T10:16:46;20.90;99.90
16966;DHT22;8599;47.852;12.070;2023-05-29T10:19:19;21.00;99.90
16966;DHT22;8599;47.852;12.070;2023-05-29T10:21:49;21.00;99.90
16966;DHT22;8599;47.852;12.070;2023-05-29T10:24:17;21.10;99.90
16966;DHT22;8599;47.852;12.070;2023-05-29T10:26:48;21.20;99.90
16966;DHT22;8599;47.852;12.070;2023-05-29T10:29:19;21.20;99.90
16966;DHT22;8599;47.852;12.070;2023-05-29T10:32:01;21.40;99.90
16966;DHT22;8599;47.852;12.070;2023-05-29T10:34:35;21.50;99.90
16966;DHT22;8599;47.852;12.070;2023-05-29T10:37:08;21.60;99.50
16966;DHT22;8599;47.852;12.070;2023-05-29T10:39:36;21.60;98.40
16966;DHT22;8599;47.852;12.070;2023-05-29T10:42:42;21.70;99.90
16966;DHT22;8599;47.852;12.070;2023-05-29T10:45:09;21.90;99.80
16966;DHT22;8599;47.852;12.070;2023-05-29T10:47:38;21.70;99.80
16966;DHT22;8599;47.852;12.070;2023-05-29T10:50:06;21.70;99.80
16966;DHT22;8599;47.852;12.070;2023-05-29T10:52:33;21.80;99.10
16966;DHT22;8599;47.852;12.070;2023-05-29T10:55:01;21.90;98.20
16966;DHT22;8599;47.852;12.070;2023-05-29T10:57:30;22.10;98.10
16966;DHT22;8599;47.852;12.070;2023-05-29T11:00:05;22.20;97.40
16966;DHT22;8599;47.852;12.070;2023-05-29T11:02:41;22.30;96.90
16966;DHT22;8599;47.852;12.070;2023-05-29T11:05:24;22.40;96.30
16966;DHT22;8599;47.852;12.070;2023-05-29T11:07:53;22.40;96.20
16966;DHT22;8599;47.852;12.070;2023-05-29T11:10:41;22.40;95.30
16966;DHT22;8599;47.852;12.070;2023-05-29T11:13:09;22.40;95.90
16966;DHT22;8599;47.852;12.070;2023-05-29T11:15:36;22.30;94.90
16966;DHT22;8599;47.852;12.070;2023-05-29T11:18:08;22.40;96.20
16966;DHT22;8599;47.852;12.070;2023-05-29T11:20:44;22.30;94.20
16966;DHT22;8599;47.852;12.070;2023-05-29T11:23:17;22.30;94.10
16966;DHT22;8599;47.852;12.070;2023-05-29T11:25:44;22.50;95.10
16966;DHT22;8599;47.852;12.070;2023-05-29T11:28:13;22.60;94.80
16966;DHT22;8599;47.852;12.070;2023-05-29T11:30:45;22.60;95.10
16966;DHT22;8599;47.852;12.070;2023-05-29T11:33:20;22.70;94.60
16966;DHT22;8599;47.852;12.070;2023-05-29T11:35:52;22.90;94.80
16966;DHT22;8599;47.852;12.070;2023-05-29T11:38:21;23.00;94.50
16966;DHT22;8599;47.852;12.070;2023-05-29T11:40:48;23.00;92.50
16966;DHT22;8599;47.852;12.070;2023-05-29T11:43:16;23.10;94.00
16966;DHT22;8599;47.852;12.070;2023-05-29T11:45:43;23.30;92.70
16966;DHT22;8599;47.852;12.070;2023-05-29T11:48:09;23.30;92.70
16966;DHT22;8599;47.852;12.070;2023-05-29T11:50:37;23.30;91.40
16966;DHT22;8599;47.852;12.070;2023-05-29T11:53:06;23.30;91.50
16966;DHT22;8599;47.852;12.070;2023-05-29T11:55:34;23.30;92.00
16966;DHT22;8599;47.852;12.070;2023-05-29T11:58:02;23.30;92.20
16966;DHT22;8599;47.852;12.070;2023-05-29T12:00:31;23.20;91.60
16966;DHT22;8599;47.852;12.070;2023-05-29T12:02:59;23.40;93.10
16966;DHT22;8599;47.852;12.070;2023-05-29T12:05:29;23.60;93.30
16966;DHT22;8599;47.852;12.070;2023-05-29T12:07:58;23.80;92.50
16966;DHT22;8599;47.852;12.070;2023-05-29T12:10:27;23.90;92.50
16966;DHT22;8599;47.852;12.070;2023-05-29T12:12:57;23.80;92.10
16966;DHT22;8599;47.852;12.070;2023-05-29T12:15:24;23.90;92.80
16966;DHT22;8599;47.852;12.070;2023-05-29T12:17:52;24.10;92.20
16966;DHT22;8599;47.852;12.070;2023-05-29T12:20:22;24.10;92.00
16966;DHT22;8599;47.852;12.070;2023-05-29T12:22:49;24.10;91.60
16966;DHT22;8599;47.852;12.070;2023-05-29T12:25:19;24.00;92.10
16966;DHT22;8599;47.852;12.070;2023-05-29T12:27:47;24.00;92.30
16966;DHT22;8599;47.852;12.070;2023-05-29T12:30:20;23.90;92.00
16966;DHT22;8599;47.852;12.070;2023-05-29T12:32:48;23.80;92.00
16966;DHT22;8599;47.852;12.070;2023-05-29T12:35:17;23.70;91.90
16966;DHT22;8599;47.852;12.070;2023-05-29T12:37:45;23.80;92.30
16966;DHT22;8599;47.852;12.070;2023-05-29T12:40:18;24.20;91.50
16966;DHT22;8599;47.852;12.070;2023-05-29T12:42:46;24.30;90.70
16966;DHT22;8599;47.852;12.070;2023-05-29T12:45:13;24.40;91.30
16966;DHT22;8599;47.852;12.070;2023-05-29T12:47:51;24.20;90.20
16966;DHT22;8599;47.852;12.070;2023-05-29T12:50:25;24.30;90.60
16966;DHT22;8599;47.852;12.070;2023-05-29T12:52:56;24.50;89.00
16966;DHT22;8599;47.852;12.070;2023-05-29T12:55:25;24.50;88.70
16966;DHT22;8599;47.852;12.070;2023-05-29T12:57:53;24.50;89.60
16966;DHT22;8599;47.852;12.070;2023-05-29T13:00:20;24.70;88.70
16966;DHT22;8599;47.852;12.070;2023-05-29T13:02:48;24.70;87.30
16966;DHT22;8599;47.852;12.070;2023-05-29T13:05:15;24.50;86.40
16966;DHT22;8599;47.852;12.070;2023-05-29T13:07:44;24.60;88.30
16966;DHT22;8599;47.852;12.070;2023-05-29T13:10:12;24.70;85.60
16966;DHT22;8599;47.852;12.070;2023-05-29T13:12:40;24.80;87.10
16966;DHT22;8599;47.852;12.070;2023-05-29T13:15:07;24.70;85.30
16966;DHT22;8599;47.852;12.070;2023-05-29T13:17:34;24.70;86.60
16966;DHT22;8599;47.852;12.070;2023-05-29T13:20:01;25.10;83.20
16966;DHT22;8599;47.852;12.070;2023-05-29T13:22:31;25.10;83.00
16966;DHT22;8599;47.852;12.070;2023-05-29T13:24:58;24.80;84.40
16966;DHT22;8599;47.852;12.070;2023-05-29T13:27:26;24.90;85.30
16966;DHT22;8599;47.852;12.070;2023-05-29T13:29:54;24.70;87.10
16966;DHT22;8599;47.852;12.070;2023-05-29T13:32:21;25.00;85.30
16966;DHT22;8599;47.852;12.070;2023-05-29T13:34:47;25.30;83.60
16966;DHT22;8599;47.852;12.070;2023-05-29T13:37:14;25.40;84.30
16966;DHT22;8599;47.852;12.070;2023-05-29T13:39:41;25.70;81.50
16966;DHT22;8599;47.852;12.070;2023-05-29T13:42:08;25.60;81.00
16966;DHT22;8599;47.852;12.070;2023-05-29T13:44:36;25.60;83.00
16966;DHT22;8599;47.852;12.070;2023-05-29T13:47:05;25.40;80.50
16966;DHT22;8599;47.852;12.070;2023-05-29T13:49:32;25.60;80.20
16966;DHT22;8599;47.852;12.070;2023-05-29T13:51:59;25.70;82.20
16966;DHT22;8599;47.852;12.070;2023-05-29T13:54:26;25.50;81.20
16966;DHT22;8599;47.852;12.070;2023-05-29T13:56:55;25.80;80.30
16966;DHT22;8599;47.852;12.070;2023-05-29T13:59:22;25.90;80.70
16966;DHT22;8599;47.852;12.070;2023-05-29T14:01:49;25.90;79.50
16966;DHT22;8599;47.852;12.070;2023-05-29T14:04:17;26.20;79.00
16966;DHT22;8599;47.852;12.070;2023-05-29T14:06:44;26.50;77.90
16966;DHT22;8599;47.852;12.070;2023-05-29T14:09:11;26.20;76.10
16966;DHT22;8599;47.852;12.070;2023-05-29T14:11:38;26.00;73.50
16966;DHT22;8599;47.852;12.070;2023-05-29T14:14:05;25.80;74.40
16966;DHT22;8599;47.852;12.070;2023-05-29T14:16:32;25.80;75.40
16966;DHT22;8599;47.852;12.070;2023-05-29T14:18:59;25.80;76.00
16966;DHT22;8599;47.852;12.070;2023-05-29T14:21:28;25.80;75.70
16966;DHT22;8599;47.852;12.070;2023-05-29T14:23:54;26.20;74.50
16966;DHT22;8599;47.852;12.070;2023-05-29T14:26:21;26.10;75.40
16966;DHT22;8599;47.852;12.070;2023-05-29T14:28:48;25.60;73.30
16966;DHT22;8599;47.852;12.070;2023-05-29T14:31:15;25.80;75.20
16966;DHT22;8599;47.852;12.070;2023-05-29T14:33:42;25.50;74.30
16966;DHT22;8599;47.852;12.070;2023-05-29T14:36:09;25.70;73.30
16966;DHT22;8599;47.852;12.070;2023-05-29T14:38:37;26.10;74.10
16966;DHT22;8599;47.852;12.070;2023-05-29T14:41:04;26.20;72.40
16966;DHT22;8599;47.852;12.070;2023-05-29T14:43:32;26.30;74.20
16966;DHT22;8599;47.852;12.070;2023-05-29T14:45:58;26.20;71.80
16966;DHT22;8599;47.852;12.070;2023-05-29T14:48:25;26.40;73.90
16966;DHT22;8599;47.852;12.070;2023-05-29T14:50:52;26.60;72.50
16966;DHT22;8599;47.852;12.070;2023-05-29T14:53:19;26.80;71.30
16966;DHT22;8599;47.852;12.070;2023-05-29T14:55:49;26.60;71.60
16966;DHT22;8599;47.852;12.070;2023-05-29T14:58:16;26.50;73.50
16966;DHT22;8599;47.852;12.070;2023-05-29T15:00:43;26.20;73.50
16966;DHT22;8599;47.852;12.070;2023-05-29T15:03:10;26.40;72.30
16966;DHT22;8599;47.852;12.070;2023-05-29T15:05:36;26.50;73.30
16966;DHT22;8599;47.852;12.070;2023-05-29T15:08:03;26.60;72.60
16966;DHT22;8599;47.852;12.070;2023-05-29T15:10:30;26.40;71.60
16966;DHT22;8599;47.852;12.070;2023-05-29T15:12:59;26.10;70.80
16966;DHT22;8599;47.852;12.070;2023-05-29T15:15:26;25.70;73.60
16966;DHT22;8599;47.852;12.070;2023-05-29T15:17:54;25.30;71.80
16966;DHT22;8599;47.852;12.070;2023-05-29T15:20:22;25.30;72.70
16966;DHT22;8599;47.852;12.070;2023-05-29T15:22:49;25.20;74.50
16966;DHT22;8599;47.852;12.070;2023-05-29T15:25:16;24.90;74.00
16966;DHT22;8599;47.852;12.070;2023-05-29T15:27:43;24.70;73.00
16966;DHT22;8599;47.852;12.070;2023-05-29T15:30:13;24.50;73.80
16966;DHT22;8599;47.852;12.070;2023-05-29T15:32:42;24.40;74.10
16966;DHT22;8599;47.852;12.070;2023-05-29T15:35:10;24.00;74.40